Mennonite Mission, Arizona
Current Conditions -  °F | °C
As of 4:53 AM on Friday 24 Oct 2014 (Local Time) from KRQE Reporting Station
Clear Clear  
Wind Chill: 33°   Ceiling: Unl
Heat Index: 33°   Visibility: 10mi
Dew Point: 25°   Wind: 3mph
Humidity: 72%   Direction: 190°S
Pressure: 30.36"   Gusts: NA
Location:  35.6053°N, 109.458°W
Report Text: KRQE 241053Z AUTO 19003KT 10SM CLR 01/M04 A3036 RMK AO2 SLP211 T00061039 TSNO
Loading
Personal Weather Stations






























Interactive Weather Map
Tropical Storm Tracking
New forecast layout! Learn more

10-Day Weather Forecast

Advertisements
Track Severe Weather on mobile